createdAt,value
2023-02-17T05:50:18.616Z,100.00
2023-02-17T05:52:49.132Z,100.00
2023-02-17T05:55:16.480Z,100.00
2023-02-17T05:57:43.226Z,100.00
2023-02-17T06:00:11.179Z,100.00
2023-02-17T06:02:41.032Z,100.00
2023-02-17T06:05:08.629Z,100.00
2023-02-17T06:07:35.546Z,100.00
2023-02-17T06:10:06.559Z,100.00
2023-02-17T06:12:34.283Z,100.00
2023-02-17T06:15:01.003Z,100.00
2023-02-17T06:17:33.580Z,100.00
2023-02-17T06:20:00.381Z,100.00
2023-02-17T06:22:27.171Z,100.00
2023-02-17T06:24:54.037Z,100.00
2023-02-17T06:27:25.603Z,100.00
2023-02-17T06:29:54.183Z,100.00
2023-02-17T06:32:21.674Z,100.00
2023-02-17T06:34:53.632Z,100.00
2023-02-17T06:41:42.350Z,100.00
2023-02-17T06:44:29.252Z,100.00
2023-02-17T06:47:28.124Z,100.00
2023-02-17T06:50:57.130Z,100.00
2023-02-17T06:53:36.353Z,100.00
2023-02-17T06:59:33.696Z,100.00
2023-02-17T07:02:11.769Z,100.00
2023-02-17T07:04:40.362Z,100.00
2023-02-17T07:07:13.578Z,100.00
2023-02-17T07:09:41.037Z,100.00
2023-02-17T07:12:08.843Z,100.00
2023-02-17T07:14:36.545Z,100.00
2023-02-17T07:17:34.987Z,100.00
2023-02-17T07:20:42.197Z,100.00
2023-02-17T07:23:29.326Z,100.00
2023-02-17T07:26:11.812Z,100.00
2023-02-17T07:29:09.721Z,100.00
2023-02-17T07:31:53.164Z,100.00
2023-02-17T07:34:19.962Z,100.00
2023-02-17T07:36:47.303Z,99.99
2023-02-17T07:39:14.092Z,99.97
2023-02-17T07:41:40.889Z,99.49
2023-02-17T07:44:10.817Z,99.29
2023-02-17T07:46:39.236Z,98.47
2023-02-17T07:49:06.140Z,98.27
2023-02-17T07:51:34.726Z,97.80
2023-02-17T07:54:04.196Z,97.17
2023-02-17T07:56:34.173Z,96.50
2023-02-17T07:59:02.941Z,95.88
2023-02-17T08:01:30.453Z,94.65
2023-02-17T08:04:03.704Z,94.16
2023-02-17T08:06:33.088Z,93.90
2023-02-17T08:09:20.577Z,94.03
2023-02-17T08:12:06.968Z,94.30
2023-02-17T08:14:36.158Z,94.53
2023-02-17T08:17:25.139Z,94.38
2023-02-17T08:20:41.889Z,94.76
2023-02-17T08:24:28.538Z,94.77
2023-02-17T08:28:00.551Z,94.14
2023-02-17T08:34:59.607Z,93.38
2023-02-17T08:37:37.271Z,93.40
2023-02-17T08:46:44.565Z,92.82
2023-02-17T08:49:45.326Z,92.64
2023-02-17T08:52:12.892Z,92.42
2023-02-17T08:54:40.955Z,92.20
2023-02-17T08:57:15.010Z,92.14
2023-02-17T09:00:05.592Z,92.08
2023-02-17T09:03:41.197Z,91.89
2023-02-17T09:07:00.517Z,91.69
2023-02-17T09:09:40.329Z,91.31
2023-02-17T09:13:19.049Z,90.84
2023-02-17T09:16:04.713Z,91.29
2023-02-17T09:18:37.749Z,91.16
2023-02-17T09:21:11.927Z,90.81
2023-02-17T09:23:41.744Z,90.53
2023-02-17T09:26:11.090Z,90.27
2023-02-17T09:28:40.295Z,90.05
2023-02-17T09:31:11.599Z,89.81
2023-02-17T09:33:40.293Z,89.43
2023-02-17T09:36:09.722Z,89.29
2023-02-17T09:38:39.373Z,89.59
2023-02-17T09:41:33.689Z,89.62
2023-02-17T09:44:02.162Z,89.82
2023-02-17T09:46:33.366Z,89.79
2023-02-17T09:49:40.184Z,89.66
2023-02-17T09:52:28.874Z,89.81
2023-02-17T09:55:49.735Z,90.31
2023-02-17T09:59:14.924Z,90.62
2023-02-17T10:01:53.512Z,91.08
2023-02-17T10:04:21.076Z,91.00
2023-02-17T10:07:11.438Z,90.80
2023-02-17T10:10:30.924Z,91.07
2023-02-17T10:13:40.400Z,91.08
2023-02-17T10:16:17.693Z,90.85
2023-02-17T10:18:48.172Z,90.58
2023-02-17T10:21:21.546Z,90.55
2023-02-17T10:23:48.849Z,90.60
2023-02-17T10:26:21.972Z,90.84
2023-02-17T10:29:01.753Z,90.88
2023-02-17T10:31:47.331Z,90.67
2023-02-17T10:34:32.384Z,90.49
2023-02-17T10:37:01.005Z,90.17
2023-02-17T10:39:37.337Z,89.68
2023-02-17T10:42:04.325Z,89.64
2023-02-17T10:44:33.918Z,89.37
2023-02-17T10:47:01.135Z,89.04
2023-02-17T10:50:04.210Z,88.75
2023-02-17T10:53:40.204Z,88.66
2023-02-17T10:56:31.328Z,88.73
2023-02-17T11:03:33.494Z,88.08
2023-02-17T11:06:19.125Z,87.76
2023-02-17T11:09:04.971Z,87.19
2023-02-17T11:11:56.881Z,87.53
2023-02-17T11:14:26.681Z,88.24
2023-02-17T11:17:00.064Z,88.89
2023-02-17T11:19:36.960Z,89.28
2023-02-17T11:26:57.878Z,90.77
2023-02-17T11:29:29.132Z,90.89
2023-02-17T11:32:08.204Z,91.17
2023-02-17T11:34:36.981Z,91.41
2023-02-17T11:37:20.607Z,91.82
2023-02-17T11:39:48.890Z,92.45
2023-02-17T11:42:27.241Z,92.72
2023-02-17T11:44:56.580Z,92.74
2023-02-17T11:47:34.564Z,92.85
2023-02-17T11:50:46.038Z,93.12
2023-02-17T11:53:30.959Z,93.20
2023-02-17T11:56:07.686Z,93.29
2023-02-17T11:58:57.255Z,93.36
2023-02-17T12:01:38.892Z,93.87
2023-02-17T12:04:12.971Z,94.20
2023-02-17T12:06:45.587Z,94.34
2023-02-17T12:09:39.939Z,94.67
2023-02-17T12:12:15.167Z,94.99
2023-02-17T12:14:57.503Z,95.10
2023-02-17T12:17:35.255Z,95.36
2023-02-17T12:20:37.465Z,95.71
2023-02-17T12:23:18.951Z,95.85
2023-02-17T12:26:22.447Z,96.06
2023-02-17T12:28:57.804Z,96.31
2023-02-17T12:31:37.106Z,96.52
2023-02-17T12:34:22.342Z,96.81
2023-02-17T12:36:49.544Z,97.01
2023-02-17T12:39:22.016Z,97.23
2023-02-17T12:42:00.116Z,97.08
2023-02-17T12:44:34.571Z,97.27
2023-02-17T12:47:05.554Z,97.27
2023-02-17T12:49:38.074Z,97.30
2023-02-17T12:52:04.853Z,97.41
2023-02-17T12:54:35.880Z,97.41
2023-02-17T12:57:28.893Z,97.55
2023-02-17T12:59:55.554Z,97.54
2023-02-17T13:02:23.853Z,97.71
2023-02-17T13:04:53.153Z,97.69
2023-02-17T13:07:41.324Z,97.62
2023-02-17T13:10:21.473Z,97.45
2023-02-17T13:12:59.028Z,97.19
2023-02-17T13:15:30.349Z,96.86
2023-02-17T13:18:02.940Z,96.56
